createdAt,value
2018-09-02T00:02:11.327Z,8.23
2018-09-02T00:04:42.030Z,6.30
2018-09-02T00:07:10.658Z,7.37
2018-09-02T00:09:39.367Z,6.35
2018-09-02T00:12:09.615Z,5.85
2018-09-02T00:14:38.401Z,5.37
2018-09-02T00:17:10.439Z,6.28
2018-09-02T00:19:39.627Z,8.23
2018-09-02T00:22:08.178Z,8.32
2018-09-02T00:24:38.262Z,8.57
2018-09-02T00:27:08.518Z,9.75
2018-09-02T00:29:37.268Z,5.93
2018-09-02T00:32:08.346Z,7.80
2018-09-02T00:34:38.504Z,6.25
2018-09-02T00:37:08.622Z,6.30
2018-09-02T00:39:38.853Z,4.45
2018-09-02T00:42:09.178Z,6.57
2018-09-02T00:44:41.107Z,10.30
2018-09-02T00:47:11.258Z,4.78
2018-09-02T00:49:42.235Z,5.87
2018-09-02T00:52:11.036Z,5.40
2018-09-02T00:54:42.797Z,6.47
2018-09-02T00:57:13.665Z,5.15
2018-09-02T00:59:42.297Z,5.25
2018-09-02T01:02:12.631Z,8.65
2018-09-02T01:04:41.449Z,6.40
2018-09-02T01:07:10.738Z,7.50
2018-09-02T01:09:40.927Z,6.03
2018-09-02T01:12:11.879Z,4.50
2018-09-02T01:14:43.275Z,6.12
2018-09-02T01:17:14.509Z,9.38
2018-09-02T01:19:46.833Z,5.75
2018-09-02T01:22:18.757Z,6.15
2018-09-02T01:24:48.865Z,6.50
2018-09-02T01:27:17.803Z,7.03
2018-09-02T01:29:49.679Z,7.75
2018-09-02T01:32:20.467Z,5.25
2018-09-02T01:34:49.237Z,5.30
2018-09-02T01:37:18.581Z,5.30
2018-09-02T01:39:47.937Z,5.62
2018-09-02T01:42:19.752Z,6.72
2018-09-02T01:44:51.850Z,8.80
2018-09-02T01:47:23.581Z,7.68
2018-09-02T01:49:56.216Z,5.35
2018-09-02T01:52:26.507Z,6.97
2018-09-02T01:54:56.759Z,7.10
2018-09-02T01:57:26.935Z,5.68
2018-09-02T01:59:55.764Z,5.87
2018-09-02T02:02:27.667Z,7.60
2018-09-02T02:04:59.564Z,6.87
2018-09-02T02:07:31.398Z,7.75
2018-09-02T02:10:03.546Z,8.50
2018-09-02T02:12:33.607Z,7.60
2018-09-02T02:15:05.591Z,8.43
2018-09-02T02:17:35.883Z,9.07
2018-09-02T02:20:04.555Z,7.22
2018-09-02T02:22:35.016Z,8.60
2018-09-02T02:25:05.183Z,9.30
2018-09-02T02:27:36.082Z,6.43
2018-09-02T02:30:05.518Z,8.10
2018-09-02T02:32:35.710Z,9.65
2018-09-02T02:35:07.256Z,8.27
2018-09-02T02:37:37.605Z,8.52
2018-09-02T02:40:09.478Z,6.30
2018-09-02T02:42:39.945Z,9.80
2018-09-02T02:45:10.303Z,9.95
2018-09-02T02:47:40.549Z,12.37
2018-09-02T02:50:09.332Z,12.35
2018-09-02T02:52:57.227Z,8.55
2018-09-02T02:55:29.281Z,10.63
2018-09-02T02:57:59.064Z,9.07
2018-09-02T03:00:32.614Z,7.43
2018-09-02T03:03:04.306Z,8.38
2018-09-02T03:05:34.979Z,7.55
2018-09-02T03:08:06.691Z,9.60
2018-09-02T03:10:38.538Z,8.75
2018-09-02T03:13:10.180Z,9.00
2018-09-02T03:15:42.458Z,8.32
2018-09-02T03:18:14.152Z,7.12
2018-09-02T03:20:44.326Z,9.45
2018-09-02T03:23:13.732Z,10.57
2018-09-02T03:25:43.981Z,12.00
2018-09-02T03:28:14.175Z,11.10
2018-09-02T03:30:44.572Z,10.20
2018-09-02T03:33:16.156Z,8.70
2018-09-02T03:35:46.368Z,7.90
2018-09-02T03:38:15.059Z,9.23
2018-09-02T03:40:46.801Z,14.07
2018-09-02T03:43:15.425Z,8.02
2018-09-02T03:45:47.611Z,11.73
2018-09-02T03:48:16.314Z,10.68
2018-09-02T03:50:46.415Z,11.77
2018-09-02T03:53:16.909Z,11.82
2018-09-02T03:55:48.460Z,10.85
2018-09-02T03:58:20.023Z,11.77
2018-09-02T04:00:50.163Z,10.48
2018-09-02T04:03:21.470Z,10.30
2018-09-02T04:05:53.292Z,10.52
2018-09-02T04:08:24.240Z,14.38
2018-09-02T04:10:55.924Z,9.68
2018-09-02T04:13:26.101Z,13.35
2018-09-02T04:15:58.269Z,13.60
2018-09-02T04:18:30.254Z,14.37
2018-09-02T04:21:02.333Z,13.82
2018-09-02T04:23:32.417Z,11.73
2018-09-02T04:26:02.419Z,9.93
2018-09-02T04:28:33.178Z,12.32
2018-09-02T04:31:01.980Z,12.25
2018-09-02T04:33:32.278Z,10.73
2018-09-02T04:36:03.219Z,13.50
2018-09-02T04:38:33.535Z,10.40
2018-09-02T04:41:03.777Z,13.93
2018-09-02T04:43:34.526Z,15.85
2018-09-02T04:46:06.239Z,17.12
2018-09-02T04:48:38.040Z,14.55
2018-09-02T04:51:08.608Z,13.50
2018-09-02T04:53:38.945Z,15.80
2018-09-02T04:56:09.185Z,16.23
2018-09-02T04:58:39.372Z,12.90
2018-09-02T05:01:09.612Z,14.23
2018-09-02T05:03:40.518Z,10.67
2018-09-02T05:06:11.847Z,14.95
2018-09-02T05:08:42.239Z,12.45
2018-09-02T05:11:13.738Z,13.45
2018-09-02T05:13:45.635Z,12.30
2018-09-02T05:16:16.109Z,12.98
2018-09-02T05:18:47.929Z,12.70
2018-09-02T05:21:20.060Z,17.90
2018-09-02T05:23:50.491Z,16.42
2018-09-02T05:26:20.854Z,19.83
2018-09-02T05:28:51.051Z,22.33
2018-09-02T05:31:21.125Z,13.02
2018-09-02T05:33:51.445Z,15.02
2018-09-02T05:36:22.552Z,20.25
2018-09-02T05:38:51.399Z,17.67
2018-09-02T05:41:21.592Z,27.98
2018-09-02T05:43:52.004Z,20.65
2018-09-02T05:46:20.545Z,22.65
2018-09-02T05:48:49.206Z,16.33
2018-09-02T05:51:20.877Z,16.60
2018-09-02T05:53:51.293Z,14.43
2018-09-02T05:56:21.354Z,10.15
2018-09-02T05:58:51.652Z,10.45
2018-09-02T06:01:21.863Z,8.43
2018-09-02T06:03:52.015Z,10.52
2018-09-02T06:06:22.333Z,9.60
2018-09-02T06:08:51.299Z,10.40
2018-09-02T06:11:21.391Z,8.50
2018-09-02T06:13:51.806Z,10.68
2018-09-02T06:16:23.689Z,9.13
2018-09-02T06:18:55.196Z,11.43
2018-09-02T06:21:23.927Z,10.40
2018-09-02T06:23:54.006Z,9.07
2018-09-02T06:26:25.788Z,10.30
2018-09-02T06:28:56.838Z,11.15
2018-09-02T06:31:27.062Z,9.13
2018-09-02T06:33:57.971Z,11.20
2018-09-02T06:36:28.164Z,9.35
2018-09-02T06:38:56.903Z,11.32
2018-09-02T06:41:28.094Z,11.68
2018-09-02T06:43:58.182Z,10.23
2018-09-02T06:46:27.065Z,11.07
2018-09-02T06:48:57.455Z,9.48
2018-09-02T06:51:26.127Z,10.45
2018-09-02T06:53:56.182Z,9.93
2018-09-02T06:56:26.406Z,12.25
2018-09-02T06:58:56.551Z,10.88
2018-09-02T07:01:27.434Z,11.93
2018-09-02T07:03:59.136Z,10.07
2018-09-02T07:06:30.830Z,11.23
2018-09-02T07:08:59.472Z,14.00
2018-09-02T07:11:29.610Z,11.35
2018-09-02T07:13:59.760Z,10.38
2018-09-02T07:16:30.031Z,12.27
2018-09-02T07:18:58.657Z,10.05
2018-09-02T07:21:28.651Z,12.13
2018-09-02T07:24:00.265Z,12.02
2018-09-02T07:26:32.377Z,11.32
2018-09-02T07:29:02.609Z,12.10
2018-09-02T07:31:32.757Z,11.00
2018-09-02T07:34:04.580Z,14.20
2018-09-02T07:36:35.308Z,11.52
2018-09-02T07:39:05.728Z,11.70
2018-09-02T07:41:37.660Z,10.23
2018-09-02T07:44:09.776Z,10.93
2018-09-02T07:46:39.832Z,12.80
2018-09-02T07:49:10.193Z,11.12
2018-09-02T07:51:40.216Z,12.35
2018-09-02T07:54:10.354Z,11.57
2018-09-02T07:56:41.900Z,10.93
2018-09-02T07:59:13.518Z,12.48
2018-09-02T08:01:45.057Z,14.18
2018-09-02T08:04:15.170Z,11.20
2018-09-02T08:06:45.177Z,9.85
2018-09-02T08:09:15.658Z,10.77
2018-09-02T08:11:45.945Z,12.02
2018-09-02T08:14:16.571Z,11.00
2018-09-02T08:16:45.728Z,11.52
2018-09-02T08:19:15.713Z,11.93
2018-09-02T08:21:47.450Z,10.50
2018-09-02T08:24:17.587Z,10.55
2018-09-02T08:26:49.409Z,10.18
2018-09-02T08:29:18.049Z,10.90
2018-09-02T08:31:48.335Z,10.52
2018-09-02T08:34:19.987Z,11.40
2018-09-02T08:36:49.637Z,9.57
2018-09-02T08:39:21.207Z,10.02
2018-09-02T08:41:50.471Z,10.48
2018-09-02T08:44:20.543Z,11.15
2018-09-02T08:46:50.707Z,9.90
2018-09-02T08:49:21.338Z,9.68
2018-09-02T08:51:49.965Z,10.00
2018-09-02T08:54:21.700Z,12.48
2018-09-02T08:56:50.263Z,10.93
2018-09-02T08:59:18.861Z,10.35
2018-09-02T09:01:47.550Z,14.82
2018-09-02T09:04:18.100Z,9.77
2018-09-02T09:06:46.670Z,10.25
2018-09-02T09:09:17.087Z,14.02
2018-09-02T09:11:47.227Z,9.55
2018-09-02T09:14:18.928Z,10.40
2018-09-02T09:16:49.075Z,9.20
2018-09-02T09:19:17.755Z,8.70
2018-09-02T09:21:47.949Z,10.25
2018-09-02T09:24:19.041Z,8.98
2018-09-02T09:26:49.316Z,9.07
2018-09-02T09:29:19.546Z,10.65
2018-09-02T09:31:51.458Z,8.80
2018-09-02T09:34:23.664Z,9.63
2018-09-02T09:36:55.312Z,9.23
2018-09-02T09:39:25.405Z,8.05
2018-09-02T09:41:56.011Z,9.02
2018-09-02T09:44:24.503Z,7.10
2018-09-02T09:46:56.452Z,8.93
2018-09-02T09:49:28.104Z,7.72
2018-09-02T09:51:58.145Z,8.65
2018-09-02T09:54:28.288Z,8.52
2018-09-02T09:56:59.464Z,7.78
2018-09-02T09:59:28.163Z,7.78
2018-09-02T10:01:59.825Z,8.13
2018-09-02T10:04:30.194Z,7.85
2018-09-02T10:07:02.734Z,9.52
2018-09-02T10:09:32.775Z,8.02
2018-09-02T10:12:04.452Z,9.13
2018-09-02T10:14:36.230Z,8.48
2018-09-02T10:17:06.542Z,11.55
2018-09-02T10:19:36.810Z,7.72
2018-09-02T10:22:06.994Z,9.23
2018-09-02T10:24:36.154Z,7.40
2018-09-02T10:27:05.266Z,7.40
2018-09-02T10:29:34.011Z,9.07
2018-09-02T10:32:04.220Z,9.20
2018-09-02T10:34:33.335Z,8.88
2018-09-02T10:37:01.088Z,7.90
2018-09-02T10:39:31.155Z,8.93
2018-09-02T10:42:03.203Z,9.00
2018-09-02T10:44:31.975Z,8.48
2018-09-02T10:47:02.010Z,7.40
2018-09-02T10:49:33.750Z,8.20
2018-09-02T10:52:05.143Z,8.98
2018-09-02T10:54:33.881Z,10.40
2018-09-02T10:57:05.847Z,8.40
2018-09-02T10:59:35.535Z,7.85
2018-09-02T11:02:07.059Z,9.93
2018-09-02T11:04:37.597Z,8.55
2018-09-02T11:07:09.583Z,9.80
2018-09-02T11:09:39.537Z,10.63
2018-09-02T11:12:10.990Z,9.40
2018-09-02T11:14:42.617Z,8.88
2018-09-02T11:17:11.238Z,7.22
2018-09-02T11:19:43.059Z,7.55
2018-09-02T11:22:14.855Z,6.30
2018-09-02T11:24:43.600Z,6.05
2018-09-02T11:27:13.995Z,5.60
2018-09-02T11:29:44.109Z,10.07
2018-09-02T11:32:15.657Z,6.80
2018-09-02T11:34:45.798Z,8.65
2018-09-02T11:37:15.951Z,9.18
2018-09-02T11:39:46.150Z,6.47
2018-09-02T11:42:17.824Z,6.22
2018-09-02T11:44:47.885Z,7.00
2018-09-02T11:47:16.620Z,7.32
2018-09-02T11:49:48.294Z,6.18
2018-09-02T11:52:16.657Z,8.57
2018-09-02T11:54:46.879Z,6.18
2018-09-02T11:57:17.089Z,6.85
2018-09-02T11:59:48.743Z,8.98
2018-09-02T12:02:20.356Z,6.35
2018-09-02T12:04:50.950Z,8.02
2018-09-02T12:07:20.919Z,7.00
2018-09-02T12:09:51.090Z,7.15
2018-09-02T12:12:21.307Z,5.18
2018-09-02T12:14:51.341Z,5.05
2018-09-02T12:17:21.444Z,6.25
2018-09-02T12:19:53.244Z,8.27
2018-09-02T12:22:23.337Z,7.55
2018-09-02T12:24:52.018Z,5.85
2018-09-02T12:27:22.985Z,6.90
2018-09-02T12:29:53.029Z,5.20
2018-09-02T12:32:24.771Z,5.65
2018-09-02T12:34:56.470Z,5.28
2018-09-02T12:37:25.247Z,4.57
2018-09-02T12:39:56.778Z,6.30
2018-09-02T12:42:27.116Z,6.18
2018-09-02T12:44:58.650Z,4.82
2018-09-02T12:47:28.918Z,6.95
2018-09-02T12:50:00.825Z,4.75
2018-09-02T12:52:30.979Z,4.05
2018-09-02T12:55:01.122Z,6.12
2018-09-02T12:57:32.243Z,5.00
2018-09-02T13:00:03.796Z,4.70
2018-09-02T13:02:32.398Z,5.75
2018-09-02T13:05:02.464Z,5.57
2018-09-02T13:07:32.753Z,7.32
2018-09-02T13:10:02.789Z,4.82
2018-09-02T13:12:34.408Z,5.03
2018-09-02T13:15:04.483Z,4.10
2018-09-02T13:17:34.589Z,5.18
2018-09-02T13:20:03.224Z,4.90
2018-09-02T13:22:33.272Z,6.00
2018-09-02T13:25:03.469Z,6.80
2018-09-02T13:27:35.360Z,5.53
2018-09-02T13:30:05.955Z,5.37
2018-09-02T13:32:35.969Z,4.68
2018-09-02T13:35:07.604Z,4.97
2018-09-02T13:37:37.858Z,5.62
2018-09-02T13:40:08.404Z,4.00
2018-09-02T13:42:38.718Z,4.85
2018-09-02T13:45:07.688Z,4.40
2018-09-02T13:47:39.368Z,4.62
2018-09-02T13:50:09.436Z,3.80
2018-09-02T13:52:40.129Z,3.20
2018-09-02T13:55:10.168Z,3.72
2018-09-02T13:57:38.918Z,5.55
2018-09-02T14:00:09.055Z,3.78
2018-09-02T14:02:37.614Z,4.93
2018-09-02T14:05:09.119Z,4.68
2018-09-02T14:07:39.254Z,6.05
2018-09-02T14:10:10.762Z,4.22
2018-09-02T14:12:42.682Z,3.80
2018-09-02T14:15:14.226Z,6.40
2018-09-02T14:17:44.719Z,4.03
2018-09-02T14:20:14.753Z,3.95
2018-09-02T14:22:44.729Z,4.93
2018-09-02T14:25:15.004Z,4.78
2018-09-02T14:27:45.551Z,3.55
2018-09-02T14:30:15.717Z,5.20
2018-09-02T14:32:45.803Z,5.07
2018-09-02T14:35:16.630Z,4.85
2018-09-02T14:37:46.692Z,4.75
2018-09-02T14:40:16.666Z,4.72
2018-09-02T14:42:46.736Z,5.22
2018-09-02T14:45:18.283Z,4.15
2018-09-02T14:47:49.908Z,5.57
2018-09-02T14:50:20.882Z,6.57
2018-09-02T14:52:50.871Z,5.72
2018-09-02T14:55:19.423Z,4.25
2018-09-02T14:57:49.726Z,3.90
2018-09-02T15:00:18.360Z,3.58
2018-09-02T15:02:46.905Z,3.12
2018-09-02T15:05:16.974Z,5.93
2018-09-02T15:07:47.012Z,4.65
2018-09-02T15:10:17.032Z,3.78
2018-09-02T15:12:48.507Z,5.20
2018-09-02T15:15:18.679Z,3.62
2018-09-02T15:17:50.419Z,3.85
2018-09-02T15:20:19.199Z,4.78
2018-09-02T15:22:47.792Z,4.60
2018-09-02T15:25:17.855Z,5.10
2018-09-02T15:27:48.177Z,5.03
2018-09-02T15:30:17.018Z,3.40
2018-09-02T15:32:47.169Z,3.40
2018-09-02T15:35:16.122Z,5.10
2018-09-02T15:37:46.184Z,6.07
2018-09-02T15:40:16.375Z,7.72
2018-09-02T15:42:44.981Z,4.00
2018-09-02T15:45:16.758Z,3.90
2018-09-02T15:47:45.684Z,4.87
2018-09-02T15:50:16.051Z,5.55
2018-09-02T15:52:47.733Z,5.70
2018-09-02T15:55:17.771Z,3.47
2018-09-02T15:57:48.073Z,3.97
2018-09-02T16:00:18.534Z,4.60
2018-09-02T16:02:50.296Z,4.70
2018-09-02T16:05:20.637Z,7.05
2018-09-02T16:07:52.176Z,4.22
2018-09-02T16:10:22.250Z,4.07
2018-09-02T16:12:51.538Z,5.18
2018-09-02T16:15:21.298Z,4.97
2018-09-02T16:17:49.919Z,6.47
2018-09-02T16:20:18.770Z,3.80
2018-09-02T16:22:50.189Z,5.40
2018-09-02T16:25:20.511Z,4.25
2018-09-02T16:27:52.318Z,5.35
2018-09-02T16:30:25.116Z,3.62
2018-09-02T16:32:56.461Z,6.12
2018-09-02T16:35:28.048Z,4.37
2018-09-02T16:37:58.069Z,4.60
2018-09-02T16:40:26.647Z,5.25
2018-09-02T16:42:56.881Z,4.78
2018-09-02T16:45:26.215Z,4.28
2018-09-02T16:47:56.399Z,3.53
2018-09-02T16:50:26.467Z,3.53
2018-09-02T16:52:56.624Z,5.43
2018-09-02T16:55:26.711Z,3.62
2018-09-02T16:57:57.284Z,4.28
2018-09-02T17:00:28.772Z,5.30
2018-09-02T17:02:57.949Z,5.75
2018-09-02T17:05:26.988Z,7.07
2018-09-02T17:07:57.115Z,5.37
2018-09-02T17:10:27.257Z,6.22
2018-09-02T17:12:57.291Z,7.25
2018-09-02T17:15:27.373Z,5.45
2018-09-02T17:17:58.245Z,4.82
2018-09-02T17:20:40.002Z,4.75
2018-09-02T17:23:14.002Z,6.47
2018-09-02T17:25:46.549Z,4.72
2018-09-02T17:28:15.484Z,3.75
2018-09-02T17:30:44.159Z,4.68
2018-09-02T17:33:16.341Z,5.25
2018-09-02T17:35:46.342Z,3.85
2018-09-02T17:38:16.396Z,5.12
2018-09-02T17:40:48.046Z,4.72
2018-09-02T17:43:18.063Z,4.00
2018-09-02T17:45:46.740Z,4.80
2018-09-02T17:48:16.748Z,4.20
2018-09-02T17:50:48.326Z,3.72
2018-09-02T17:53:16.749Z,4.90
2018-09-02T17:55:45.647Z,6.95
2018-09-02T17:58:13.494Z,5.15
2018-09-02T18:00:46.440Z,5.90
2018-09-02T18:03:18.357Z,4.35
2018-09-02T18:05:49.910Z,4.72
2018-09-02T18:08:20.427Z,7.93
2018-09-02T18:10:50.846Z,6.47
2018-09-02T18:13:20.984Z,4.12
2018-09-02T18:15:50.401Z,4.90
2018-09-02T18:18:20.859Z,6.35
2018-09-02T18:20:50.444Z,3.70
2018-09-02T18:23:22.075Z,5.15
2018-09-02T18:25:52.200Z,5.47
2018-09-02T18:28:25.162Z,5.78
2018-09-02T18:30:53.811Z,4.37
2018-09-02T18:33:26.392Z,4.40
2018-09-02T18:35:55.051Z,6.32
2018-09-02T18:38:25.152Z,3.97
2018-09-02T18:40:55.385Z,4.78
2018-09-02T18:43:25.585Z,3.25
2018-09-02T18:45:55.628Z,3.83
2018-09-02T18:48:27.410Z,4.90
2018-09-02T18:50:57.783Z,3.33
2018-09-02T18:53:27.899Z,3.17
2018-09-02T18:56:00.032Z,4.90
2018-09-02T18:58:30.398Z,5.25
2018-09-02T19:01:02.066Z,5.22
2018-09-02T19:03:33.898Z,6.45
2018-09-02T19:06:04.024Z,5.30
2018-09-02T19:08:35.450Z,5.47
2018-09-02T19:11:06.919Z,5.53
2018-09-02T19:13:38.465Z,5.37
2018-09-02T19:16:08.697Z,4.65
2018-09-02T19:18:40.395Z,5.68
2018-09-02T19:21:10.441Z,6.00
2018-09-02T19:23:41.534Z,3.80
2018-09-02T19:26:10.837Z,5.12
2018-09-02T19:28:42.356Z,4.00
2018-09-02T19:31:12.501Z,3.80
2018-09-02T19:33:43.278Z,6.72
2018-09-02T19:36:14.752Z,3.85
2018-09-02T19:38:44.879Z,4.72
2018-09-02T19:41:13.611Z,3.33
2018-09-02T19:43:43.917Z,4.68
2018-09-02T19:46:15.452Z,4.22
2018-09-02T19:48:45.681Z,4.15
2018-09-02T19:51:14.375Z,6.75
2018-09-02T19:53:45.903Z,5.93
2018-09-02T19:56:16.105Z,5.05
2018-09-02T19:58:46.216Z,7.93
2018-09-02T20:01:16.355Z,4.93
2018-09-02T20:03:45.202Z,4.87
2018-09-02T20:06:16.743Z,4.05
2018-09-02T20:08:45.407Z,6.22
2018-09-02T20:11:17.066Z,4.57
2018-09-02T20:13:48.696Z,3.90
2018-09-02T20:16:18.152Z,5.87
2018-09-02T20:18:49.836Z,4.87
2018-09-02T20:21:20.022Z,4.72
2018-09-02T20:23:50.614Z,6.22
2018-09-02T20:26:20.966Z,3.55
2018-09-02T20:28:51.100Z,4.85
2018-09-02T20:31:20.109Z,5.32
2018-09-02T20:33:49.208Z,3.75
2018-09-02T20:36:19.502Z,3.33
2018-09-02T20:38:48.132Z,3.97
2018-09-02T20:41:20.116Z,6.70
2018-09-02T20:43:50.259Z,5.05
2018-09-02T20:46:20.391Z,4.30
2018-09-02T20:48:50.716Z,7.32
2018-09-02T20:51:20.148Z,4.20
2018-09-02T20:53:50.256Z,3.70
2018-09-02T20:56:20.352Z,5.15
2018-09-02T20:58:49.125Z,5.95
2018-09-02T21:01:19.477Z,5.78
2018-09-02T21:03:51.057Z,5.15
2018-09-02T21:06:20.193Z,5.57
2018-09-02T21:08:51.092Z,5.43
2018-09-02T21:11:20.055Z,5.37
2018-09-02T21:13:48.850Z,5.00
2018-09-02T21:16:20.647Z,5.53
2018-09-02T21:18:51.113Z,5.35
2018-09-02T21:21:21.244Z,5.50
2018-09-02T21:23:50.398Z,6.60
2018-09-02T21:26:22.374Z,6.03
2018-09-02T21:28:54.199Z,4.82
2018-09-02T21:31:24.351Z,5.18
2018-09-02T21:33:54.540Z,6.45
2018-09-02T21:36:26.401Z,6.95
2018-09-02T21:38:56.530Z,5.95
2018-09-02T21:41:28.409Z,4.60
2018-09-02T21:44:00.273Z,7.62
2018-09-02T21:46:30.925Z,4.70
2018-09-02T21:48:59.521Z,5.00
2018-09-02T21:51:30.650Z,5.35
2018-09-02T21:54:02.595Z,4.43
2018-09-02T21:56:31.666Z,8.40
2018-09-02T21:59:02.055Z,5.43
2018-09-02T22:01:33.783Z,5.12
2018-09-02T22:04:02.444Z,5.22
2018-09-02T22:06:32.678Z,7.35
2018-09-02T22:09:13.773Z,5.35
2018-09-02T22:11:45.862Z,5.40
2018-09-02T22:14:16.190Z,5.62
2018-09-02T22:16:46.681Z,5.10
2018-09-02T22:19:16.850Z,5.70
2018-09-02T22:21:48.583Z,6.30
2018-09-02T22:24:18.864Z,5.45
2018-09-02T22:26:49.138Z,5.18
2018-09-02T22:29:19.276Z,5.65
2018-09-02T22:31:50.974Z,6.00
2018-09-02T22:34:22.640Z,5.43
2018-09-02T22:36:51.860Z,6.00
2018-09-02T22:39:22.603Z,5.00
2018-09-02T22:41:52.831Z,6.12
2018-09-02T22:44:23.087Z,5.28
2018-09-02T22:46:52.808Z,7.25
2018-09-02T22:49:24.588Z,5.65
2018-09-02T22:51:56.604Z,4.82
2018-09-02T22:54:28.413Z,5.35
2018-09-02T22:56:59.345Z,6.62
2018-09-02T22:59:28.064Z,7.28
2018-09-02T23:01:57.446Z,4.85
2018-09-02T23:04:27.726Z,5.72
2018-09-02T23:06:57.010Z,6.47
2018-09-02T23:09:27.275Z,6.87
2018-09-02T23:11:55.940Z,9.07
2018-09-02T23:14:27.604Z,5.00
2018-09-02T23:16:56.650Z,6.65
2018-09-02T23:19:28.299Z,5.97
2018-09-02T23:21:58.505Z,6.15
2018-09-02T23:24:28.561Z,5.10
2018-09-02T23:27:00.110Z,8.23
2018-09-02T23:29:31.911Z,6.90
2018-09-02T23:32:00.812Z,6.97
2018-09-02T23:34:32.456Z,8.48
2018-09-02T23:37:02.860Z,7.82
2018-09-02T23:39:33.310Z,7.70
2018-09-02T23:42:03.781Z,9.63
2018-09-02T23:44:33.977Z,8.57
2018-09-02T23:47:06.068Z,6.25
2018-09-02T23:49:37.721Z,6.43
2018-09-02T23:52:07.952Z,7.90
2018-09-02T23:54:39.959Z,5.10
2018-09-02T23:57:11.595Z,6.20
2018-09-02T23:59:40.963Z,5.78
